sensor_id;sensor_type;location;lat;lon;timestamp;P1;durP1;ratioP1;P2;durP2;ratioP2
20669;SDS011;10494;50.868;4.180;2023-04-21T00:02:20;19.67;;;12.60;;
20669;SDS011;10494;50.868;4.180;2023-04-21T00:04:46;20.80;;;12.00;;
20669;SDS011;10494;50.868;4.180;2023-04-21T00:07:13;18.93;;;12.10;;
20669;SDS011;10494;50.868;4.180;2023-04-21T00:09:40;15.60;;;11.20;;
20669;SDS011;10494;50.868;4.180;2023-04-21T00:12:06;18.17;;;11.50;;
20669;SDS011;10494;50.868;4.180;2023-04-21T00:14:31;14.63;;;10.77;;
20669;SDS011;10494;50.868;4.180;2023-04-21T00:16:57;15.97;;;11.20;;
20669;SDS011;10494;50.868;4.180;2023-04-21T00:19:24;16.07;;;11.03;;
20669;SDS011;10494;50.868;4.180;2023-04-21T00:21:50;15.40;;;11.37;;
20669;SDS011;10494;50.868;4.180;2023-04-21T00:24:15;17.17;;;11.43;;
20669;SDS011;10494;50.868;4.180;2023-04-21T00:26:41;15.87;;;10.30;;
20669;SDS011;10494;50.868;4.180;2023-04-21T00:29:07;16.27;;;11.73;;
20669;SDS011;10494;50.868;4.180;2023-04-21T00:31:32;16.80;;;11.53;;
20669;SDS011;10494;50.868;4.180;2023-04-21T00:33:58;16.20;;;11.40;;
20669;SDS011;10494;50.868;4.180;2023-04-21T00:36:23;14.97;;;10.47;;
20669;SDS011;10494;50.868;4.180;2023-04-21T00:38:52;20.00;;;12.90;;
20669;SDS011;10494;50.868;4.180;2023-04-21T00:41:17;17.77;;;11.83;;
20669;SDS011;10494;50.868;4.180;2023-04-21T00:44:16;14.57;;;11.27;;
20669;SDS011;10494;50.868;4.180;2023-04-21T00:46:35;15.97;;;11.00;;
20669;SDS011;10494;50.868;4.180;2023-04-21T00:49:03;16.80;;;11.30;;
20669;SDS011;10494;50.868;4.180;2023-04-21T00:51:30;15.43;;;11.50;;
20669;SDS011;10494;50.868;4.180;2023-04-21T00:53:58;17.77;;;12.13;;
20669;SDS011;10494;50.868;4.180;2023-04-21T00:56:25;16.60;;;11.10;;
20669;SDS011;10494;50.868;4.180;2023-04-21T00:58:55;16.53;;;11.37;;
20669;SDS011;10494;50.868;4.180;2023-04-21T01:01:22;17.07;;;12.13;;
20669;SDS011;10494;50.868;4.180;2023-04-21T01:03:48;14.73;;;10.87;;
20669;SDS011;10494;50.868;4.180;2023-04-21T01:06:14;17.53;;;11.80;;
20669;SDS011;10494;50.868;4.180;2023-04-21T01:08:40;16.53;;;11.70;;
20669;SDS011;10494;50.868;4.180;2023-04-21T01:11:10;17.17;;;11.40;;
20669;SDS011;10494;50.868;4.180;2023-04-21T01:13:37;16.50;;;12.30;;
20669;SDS011;10494;50.868;4.180;2023-04-21T01:16:03;20.67;;;12.37;;
20669;SDS011;10494;50.868;4.180;2023-04-21T01:18:29;19.53;;;12.43;;
20669;SDS011;10494;50.868;4.180;2023-04-21T01:20:55;16.33;;;11.03;;
20669;SDS011;10494;50.868;4.180;2023-04-21T01:23:23;16.43;;;11.43;;
20669;SDS011;10494;50.868;4.180;2023-04-21T01:25:49;17.83;;;12.27;;
20669;SDS011;10494;50.868;4.180;2023-04-21T01:28:20;18.70;;;13.03;;
20669;SDS011;10494;50.868;4.180;2023-04-21T01:30:49;17.73;;;12.70;;
20669;SDS011;10494;50.868;4.180;2023-04-21T01:33:16;19.57;;;14.30;;
20669;SDS011;10494;50.868;4.180;2023-04-21T01:35:42;20.90;;;13.60;;
20669;SDS011;10494;50.868;4.180;2023-04-21T01:38:08;25.53;;;16.10;;
20669;SDS011;10494;50.868;4.180;2023-04-21T01:40:34;21.97;;;15.33;;
20669;SDS011;10494;50.868;4.180;2023-04-21T01:43:00;26.97;;;16.83;;
20669;SDS011;10494;50.868;4.180;2023-04-21T01:45:27;25.13;;;16.57;;
20669;SDS011;10494;50.868;4.180;2023-04-21T01:47:53;25.73;;;17.47;;
20669;SDS011;10494;50.868;4.180;2023-04-21T01:50:19;25.43;;;16.83;;
20669;SDS011;10494;50.868;4.180;2023-04-21T01:52:45;28.07;;;17.17;;
20669;SDS011;10494;50.868;4.180;2023-04-21T01:55:10;27.90;;;16.83;;
20669;SDS011;10494;50.868;4.180;2023-04-21T01:57:36;30.67;;;18.83;;
20669;SDS011;10494;50.868;4.180;2023-04-21T02:00:02;30.97;;;18.80;;
20669;SDS011;10494;50.868;4.180;2023-04-21T02:02:29;27.63;;;17.73;;
20669;SDS011;10494;50.868;4.180;2023-04-21T02:04:54;27.00;;;18.13;;
20669;SDS011;10494;50.868;4.180;2023-04-21T02:07:20;29.67;;;18.67;;
20669;SDS011;10494;50.868;4.180;2023-04-21T02:09:46;26.30;;;17.97;;
20669;SDS011;10494;50.868;4.180;2023-04-21T02:12:11;31.07;;;20.20;;
20669;SDS011;10494;50.868;4.180;2023-04-21T02:14:37;30.20;;;20.03;;
20669;SDS011;10494;50.868;4.180;2023-04-21T02:17:03;28.33;;;18.67;;
20669;SDS011;10494;50.868;4.180;2023-04-21T02:19:28;29.83;;;20.17;;
20669;SDS011;10494;50.868;4.180;2023-04-21T02:21:54;36.10;;;21.30;;
20669;SDS011;10494;50.868;4.180;2023-04-21T02:24:20;34.97;;;22.73;;
20669;SDS011;10494;50.868;4.180;2023-04-21T02:26:46;35.87;;;23.80;;
20669;SDS011;10494;50.868;4.180;2023-04-21T02:29:12;34.97;;;23.23;;
20669;SDS011;10494;50.868;4.180;2023-04-21T02:31:38;38.50;;;24.83;;
20669;SDS011;10494;50.868;4.180;2023-04-21T02:34:03;41.73;;;25.50;;
20669;SDS011;10494;50.868;4.180;2023-04-21T02:36:29;40.27;;;25.57;;
20669;SDS011;10494;50.868;4.180;2023-04-21T02:38:56;41.00;;;26.87;;
20669;SDS011;10494;50.868;4.180;2023-04-21T02:41:21;44.67;;;26.90;;
20669;SDS011;10494;50.868;4.180;2023-04-21T02:43:47;42.40;;;26.77;;
20669;SDS011;10494;50.868;4.180;2023-04-21T02:46:13;43.53;;;28.47;;
20669;SDS011;10494;50.868;4.180;2023-04-21T02:48:39;44.73;;;28.17;;
20669;SDS011;10494;50.868;4.180;2023-04-21T02:51:04;47.57;;;29.93;;
20669;SDS011;10494;50.868;4.180;2023-04-21T02:53:35;50.70;;;30.90;;
20669;SDS011;10494;50.868;4.180;2023-04-21T02:56:01;49.00;;;30.87;;
20669;SDS011;10494;50.868;4.180;2023-04-21T02:58:28;48.17;;;31.17;;
20669;SDS011;10494;50.868;4.180;2023-04-21T03:00:54;55.70;;;31.67;;
20669;SDS011;10494;50.868;4.180;2023-04-21T03:03:21;52.83;;;32.10;;
20669;SDS011;10494;50.868;4.180;2023-04-21T03:05:47;55.17;;;32.67;;
20669;SDS011;10494;50.868;4.180;2023-04-21T03:08:12;53.43;;;32.33;;
20669;SDS011;10494;50.868;4.180;2023-04-21T03:10:38;55.23;;;33.10;;
20669;SDS011;10494;50.868;4.180;2023-04-21T03:13:04;56.83;;;32.90;;
20669;SDS011;10494;50.868;4.180;2023-04-21T03:15:30;55.53;;;31.60;;
20669;SDS011;10494;50.868;4.180;2023-04-21T03:17:55;55.43;;;33.43;;
20669;SDS011;10494;50.868;4.180;2023-04-21T03:20:21;60.30;;;34.20;;
20669;SDS011;10494;50.868;4.180;2023-04-21T03:22:46;55.03;;;33.43;;
20669;SDS011;10494;50.868;4.180;2023-04-21T03:25:12;57.17;;;33.03;;
20669;SDS011;10494;50.868;4.180;2023-04-21T03:27:38;57.87;;;34.53;;
20669;SDS011;10494;50.868;4.180;2023-04-21T03:30:04;59.23;;;34.60;;
20669;SDS011;10494;50.868;4.180;2023-04-21T03:32:31;63.70;;;36.73;;
20669;SDS011;10494;50.868;4.180;2023-04-21T03:34:56;61.77;;;35.73;;
20669;SDS011;10494;50.868;4.180;2023-04-21T03:37:22;57.10;;;34.63;;
20669;SDS011;10494;50.868;4.180;2023-04-21T03:39:47;63.40;;;36.67;;
20669;SDS011;10494;50.868;4.180;2023-04-21T03:42:13;63.83;;;37.90;;
20669;SDS011;10494;50.868;4.180;2023-04-21T03:44:39;62.63;;;37.40;;
20669;SDS011;10494;50.868;4.180;2023-04-21T03:47:04;63.63;;;37.60;;
20669;SDS011;10494;50.868;4.180;2023-04-21T03:49:32;65.60;;;37.33;;
20669;SDS011;10494;50.868;4.180;2023-04-21T03:51:58;67.30;;;39.90;;
20669;SDS011;10494;50.868;4.180;2023-04-21T03:54:24;71.33;;;38.83;;
20669;SDS011;10494;50.868;4.180;2023-04-21T03:56:49;68.23;;;39.13;;
20669;SDS011;10494;50.868;4.180;2023-04-21T03:59:15;67.50;;;40.23;;
20669;SDS011;10494;50.868;4.180;2023-04-21T04:01:41;71.70;;;39.40;;
20669;SDS011;10494;50.868;4.180;2023-04-21T04:04:07;66.30;;;38.60;;
20669;SDS011;10494;50.868;4.180;2023-04-21T04:06:33;69.97;;;39.93;;
20669;SDS011;10494;50.868;4.180;2023-04-21T04:08:59;66.90;;;38.40;;
20669;SDS011;10494;50.868;4.180;2023-04-21T04:11:28;71.13;;;38.97;;
20669;SDS011;10494;50.868;4.180;2023-04-21T04:13:54;70.10;;;39.73;;
20669;SDS011;10494;50.868;4.180;2023-04-21T04:16:20;71.33;;;40.00;;
20669;SDS011;10494;50.868;4.180;2023-04-21T04:18:45;63.97;;;37.83;;
20669;SDS011;10494;50.868;4.180;2023-04-21T04:21:11;67.40;;;39.13;;
20669;SDS011;10494;50.868;4.180;2023-04-21T04:23:37;67.67;;;39.17;;
20669;SDS011;10494;50.868;4.180;2023-04-21T04:26:02;67.27;;;37.87;;
20669;SDS011;10494;50.868;4.180;2023-04-21T04:28:29;68.60;;;38.97;;
20669;SDS011;10494;50.868;4.180;2023-04-21T04:30:55;72.20;;;40.20;;
20669;SDS011;10494;50.868;4.180;2023-04-21T04:33:21;72.73;;;39.57;;
20669;SDS011;10494;50.868;4.180;2023-04-21T04:35:47;65.50;;;39.63;;
20669;SDS011;10494;50.868;4.180;2023-04-21T04:38:12;67.33;;;37.63;;
20669;SDS011;10494;50.868;4.180;2023-04-21T04:40:41;70.00;;;40.10;;
20669;SDS011;10494;50.868;4.180;2023-04-21T04:43:07;70.87;;;39.00;;
20669;SDS011;10494;50.868;4.180;2023-04-21T04:45:34;67.33;;;40.00;;
20669;SDS011;10494;50.868;4.180;2023-04-21T04:48:01;69.70;;;39.23;;
20669;SDS011;10494;50.868;4.180;2023-04-21T04:50:27;70.00;;;40.47;;
20669;SDS011;10494;50.868;4.180;2023-04-21T04:52:53;74.40;;;40.60;;
20669;SDS011;10494;50.868;4.180;2023-04-21T04:55:20;71.50;;;40.13;;
20669;SDS011;10494;50.868;4.180;2023-04-21T04:57:46;71.33;;;41.57;;
20669;SDS011;10494;50.868;4.180;2023-04-21T05:00:12;69.53;;;40.03;;
20669;SDS011;10494;50.868;4.180;2023-04-21T05:02:38;67.27;;;39.57;;
20669;SDS011;10494;50.868;4.180;2023-04-21T05:05:05;68.30;;;38.20;;
20669;SDS011;10494;50.868;4.180;2023-04-21T05:07:32;68.07;;;40.70;;
20669;SDS011;10494;50.868;4.180;2023-04-21T05:09:58;65.93;;;38.73;;
20669;SDS011;10494;50.868;4.180;2023-04-21T05:12:24;66.20;;;38.37;;
20669;SDS011;10494;50.868;4.180;2023-04-21T05:14:49;61.93;;;38.20;;
20669;SDS011;10494;50.868;4.180;2023-04-21T05:17:15;64.53;;;37.60;;
20669;SDS011;10494;50.868;4.180;2023-04-21T05:19:41;65.20;;;38.83;;
20669;SDS011;10494;50.868;4.180;2023-04-21T05:22:06;63.13;;;37.07;;
20669;SDS011;10494;50.868;4.180;2023-04-21T05:24:32;69.10;;;38.90;;
20669;SDS011;10494;50.868;4.180;2023-04-21T05:26:58;64.73;;;37.93;;
20669;SDS011;10494;50.868;4.180;2023-04-21T05:29:24;59.23;;;35.77;;
20669;SDS011;10494;50.868;4.180;2023-04-21T05:31:50;59.07;;;35.90;;
20669;SDS011;10494;50.868;4.180;2023-04-21T05:34:16;59.03;;;34.67;;
20669;SDS011;10494;50.868;4.180;2023-04-21T05:36:42;63.07;;;36.70;;
20669;SDS011;10494;50.868;4.180;2023-04-21T05:39:08;59.73;;;35.13;;
20669;SDS011;10494;50.868;4.180;2023-04-21T05:41:33;57.37;;;33.70;;
20669;SDS011;10494;50.868;4.180;2023-04-21T05:43:59;59.40;;;34.10;;
20669;SDS011;10494;50.868;4.180;2023-04-21T05:46:25;53.40;;;32.80;;
20669;SDS011;10494;50.868;4.180;2023-04-21T05:48:50;57.37;;;33.77;;
20669;SDS011;10494;50.868;4.180;2023-04-21T05:51:16;54.87;;;33.37;;
20669;SDS011;10494;50.868;4.180;2023-04-21T05:53:42;49.47;;;31.67;;
20669;SDS011;10494;50.868;4.180;2023-04-21T05:56:09;47.63;;;30.53;;
20669;SDS011;10494;50.868;4.180;2023-04-21T05:58:35;45.73;;;29.63;;
20669;SDS011;10494;50.868;4.180;2023-04-21T06:01:01;40.70;;;26.80;;
20669;SDS011;10494;50.868;4.180;2023-04-21T06:03:29;36.63;;;25.63;;
20669;SDS011;10494;50.868;4.180;2023-04-21T06:05:55;35.15;;;24.58;;
20669;SDS011;10494;50.868;4.180;2023-04-21T06:08:21;35.25;;;24.77;;
20669;SDS011;10494;50.868;4.180;2023-04-21T06:10:47;37.80;;;23.98;;
20669;SDS011;10494;50.868;4.180;2023-04-21T06:13:13;34.08;;;23.23;;
20669;SDS011;10494;50.868;4.180;2023-04-21T06:15:39;33.22;;;24.17;;
20669;SDS011;10494;50.868;4.180;2023-04-21T06:18:04;29.42;;;20.73;;
20669;SDS011;10494;50.868;4.180;2023-04-21T06:20:30;30.33;;;21.33;;
20669;SDS011;10494;50.868;4.180;2023-04-21T06:22:56;30.55;;;21.27;;
20669;SDS011;10494;50.868;4.180;2023-04-21T06:25:21;29.45;;;20.25;;
20669;SDS011;10494;50.868;4.180;2023-04-21T06:27:47;29.77;;;21.50;;
20669;SDS011;10494;50.868;4.180;2023-04-21T06:30:13;26.67;;;19.63;;
20669;SDS011;10494;50.868;4.180;2023-04-21T06:32:39;32.60;;;20.95;;
20669;SDS011;10494;50.868;4.180;2023-04-21T06:35:04;30.92;;;21.48;;
20669;SDS011;10494;50.868;4.180;2023-04-21T06:37:30;30.05;;;20.92;;
20669;SDS011;10494;50.868;4.180;2023-04-21T06:39:56;30.60;;;21.23;;
20669;SDS011;10494;50.868;4.180;2023-04-21T06:42:21;37.93;;;21.57;;
20669;SDS011;10494;50.868;4.180;2023-04-21T06:44:47;32.93;;;20.83;;
20669;SDS011;10494;50.868;4.180;2023-04-21T06:47:13;28.07;;;19.67;;
20669;SDS011;10494;50.868;4.180;2023-04-21T06:49:40;30.03;;;19.87;;
20669;SDS011;10494;50.868;4.180;2023-04-21T06:52:06;46.20;;;20.80;;
20669;SDS011;10494;50.868;4.180;2023-04-21T06:54:32;34.17;;;21.57;;
20669;SDS011;10494;50.868;4.180;2023-04-21T06:56:57;31.93;;;20.33;;
20669;SDS011;10494;50.868;4.180;2023-04-21T06:59:23;29.98;;;20.63;;
20669;SDS011;10494;50.868;4.180;2023-04-21T07:01:49;28.90;;;20.23;;
20669;SDS011;10494;50.868;4.180;2023-04-21T07:04:16;29.93;;;19.23;;
20669;SDS011;10494;50.868;4.180;2023-04-21T07:06:43;29.40;;;19.87;;
20669;SDS011;10494;50.868;4.180;2023-04-21T07:09:08;30.43;;;18.73;;
20669;SDS011;10494;50.868;4.180;2023-04-21T07:11:34;28.55;;;18.17;;
20669;SDS011;10494;50.868;4.180;2023-04-21T07:14:00;30.03;;;19.63;;
20669;SDS011;10494;50.868;4.180;2023-04-21T07:16:26;26.42;;;18.35;;
20669;SDS011;10494;50.868;4.180;2023-04-21T07:18:52;27.83;;;18.30;;
20669;SDS011;10494;50.868;4.180;2023-04-21T07:21:18;24.98;;;17.45;;
20669;SDS011;10494;50.868;4.180;2023-04-21T07:23:44;26.67;;;17.08;;
20669;SDS011;10494;50.868;4.180;2023-04-21T07:26:09;21.42;;;16.13;;
20669;SDS011;10494;50.868;4.180;2023-04-21T07:28:36;21.05;;;15.65;;
20669;SDS011;10494;50.868;4.180;2023-04-21T07:31:02;22.80;;;14.90;;
20669;SDS011;10494;50.868;4.180;2023-04-21T07:33:28;19.23;;;15.05;;
20669;SDS011;10494;50.868;4.180;2023-04-21T07:35:54;20.10;;;14.57;;
20669;SDS011;10494;50.868;4.180;2023-04-21T07:38:20;21.30;;;14.63;;
20669;SDS011;10494;50.868;4.180;2023-04-21T07:40:45;19.02;;;14.02;;
20669;SDS011;10494;50.868;4.180;2023-04-21T07:43:11;32.47;;;15.25;;
20669;SDS011;10494;50.868;4.180;2023-04-21T07:45:37;32.08;;;14.75;;
20669;SDS011;10494;50.868;4.180;2023-04-21T07:48:02;26.35;;;15.73;;
20669;SDS011;10494;50.868;4.180;2023-04-21T07:50:30;22.35;;;14.65;;
20669;SDS011;10494;50.868;4.180;2023-04-21T07:52:55;18.38;;;13.75;;
20669;SDS011;10494;50.868;4.180;2023-04-21T07:55:21;19.05;;;13.02;;
20669;SDS011;10494;50.868;4.180;2023-04-21T07:57:47;18.40;;;13.18;;
20669;SDS011;10494;50.868;4.180;2023-04-21T08:00:13;15.90;;;12.65;;
20669;SDS011;10494;50.868;4.180;2023-04-21T08:02:39;16.63;;;12.63;;
20669;SDS011;10494;50.868;4.180;2023-04-21T08:05:05;17.83;;;12.70;;
20669;SDS011;10494;50.868;4.180;2023-04-21T08:07:31;17.17;;;12.82;;
20669;SDS011;10494;50.868;4.180;2023-04-21T08:09:56;16.38;;;12.45;;
20669;SDS011;10494;50.868;4.180;2023-04-21T08:12:22;14.73;;;11.63;;
20669;SDS011;10494;50.868;4.180;2023-04-21T08:14:48;15.93;;;12.63;;
20669;SDS011;10494;50.868;4.180;2023-04-21T08:17:13;15.77;;;12.60;;
20669;SDS011;10494;50.868;4.180;2023-04-21T08:19:39;15.02;;;12.13;;
20669;SDS011;10494;50.868;4.180;2023-04-21T08:22:05;14.90;;;11.27;;
20669;SDS011;10494;50.868;4.180;2023-04-21T08:24:30;14.70;;;11.75;;
20669;SDS011;10494;50.868;4.180;2023-04-21T08:26:56;29.35;;;12.80;;
20669;SDS011;10494;50.868;4.180;2023-04-21T08:29:22;16.92;;;11.73;;
20669;SDS011;10494;50.868;4.180;2023-04-21T08:31:48;16.23;;;12.07;;
20669;SDS011;10494;50.868;4.180;2023-04-21T08:34:13;17.67;;;12.10;;
20669;SDS011;10494;50.868;4.180;2023-04-21T08:36:39;14.50;;;11.70;;
20669;SDS011;10494;50.868;4.180;2023-04-21T08:39:06;15.18;;;11.57;;
20669;SDS011;10494;50.868;4.180;2023-04-21T08:41:32;14.80;;;12.10;;
20669;SDS011;10494;50.868;4.180;2023-04-21T08:43:58;16.13;;;12.20;;
20669;SDS011;10494;50.868;4.180;2023-04-21T08:46:23;15.05;;;12.00;;
20669;SDS011;10494;50.868;4.180;2023-04-21T08:48:51;14.13;;;10.55;;
20669;SDS011;10494;50.868;4.180;2023-04-21T08:51:20;12.75;;;11.20;;
20669;SDS011;10494;50.868;4.180;2023-04-21T08:53:47;16.13;;;11.50;;
20669;SDS011;10494;50.868;4.180;2023-04-21T08:56:13;13.88;;;11.10;;
20669;SDS011;10494;50.868;4.180;2023-04-21T08:58:39;18.42;;;12.10;;
20669;SDS011;10494;50.868;4.180;2023-04-21T09:01:05;14.00;;;10.75;;
20669;SDS011;10494;50.868;4.180;2023-04-21T09:03:31;13.10;;;9.85;;
20669;SDS011;10494;50.868;4.180;2023-04-21T09:06:04;11.93;;;10.10;;
20669;SDS011;10494;50.868;4.180;2023-04-21T09:08:31;12.70;;;10.23;;
20669;SDS011;10494;50.868;4.180;2023-04-21T09:10:58;15.70;;;10.88;;
20669;SDS011;10494;50.868;4.180;2023-04-21T09:13:35;18.08;;;9.35;;
20669;SDS011;10494;50.868;4.180;2023-04-21T09:16:02;12.68;;;9.43;;
20669;SDS011;10494;50.868;4.180;2023-04-21T09:18:30;10.27;;;8.90;;
20669;SDS011;10494;50.868;4.180;2023-04-21T09:21:10;11.95;;;9.52;;
20669;SDS011;10494;50.868;4.180;2023-04-21T09:23:45;13.55;;;10.40;;
20669;SDS011;10494;50.868;4.180;2023-04-21T09:26:12;12.18;;;9.98;;
20669;SDS011;10494;50.868;4.180;2023-04-21T09:28:40;12.35;;;9.90;;
20669;SDS011;10494;50.868;4.180;2023-04-21T09:31:14;13.00;;;9.30;;
20669;SDS011;10494;50.868;4.180;2023-04-21T09:33:48;12.35;;;10.77;;
20669;SDS011;10494;50.868;4.180;2023-04-21T09:36:22;12.25;;;9.75;;
20669;SDS011;10494;50.868;4.180;2023-04-21T09:38:54;11.95;;;8.95;;
20669;SDS011;10494;50.868;4.180;2023-04-21T09:41:23;11.20;;;9.32;;
20669;SDS011;10494;50.868;4.180;2023-04-21T09:43:49;11.75;;;9.70;;
20669;SDS011;10494;50.868;4.180;2023-04-21T09:46:16;13.15;;;10.38;;
20669;SDS011;10494;50.868;4.180;2023-04-21T09:48:43;12.82;;;9.73;;
20669;SDS011;10494;50.868;4.180;2023-04-21T09:51:13;14.63;;;9.80;;
20669;SDS011;10494;50.868;4.180;2023-04-21T09:53:40;12.48;;;9.73;;
20669;SDS011;10494;50.868;4.180;2023-04-21T09:56:13;12.25;;;9.25;;
20669;SDS011;10494;50.868;4.180;2023-04-21T09:58:45;13.35;;;10.25;;
20669;SDS011;10494;50.868;4.180;2023-04-21T10:01:12;14.65;;;10.40;;
20669;SDS011;10494;50.868;4.180;2023-04-21T10:03:38;13.50;;;10.07;;
20669;SDS011;10494;50.868;4.180;2023-04-21T10:06:05;15.82;;;11.35;;
20669;SDS011;10494;50.868;4.180;2023-04-21T10:08:32;14.20;;;11.18;;
20669;SDS011;10494;50.868;4.180;2023-04-21T10:11:00;12.25;;;9.98;;
20669;SDS011;10494;50.868;4.180;2023-04-21T10:13:27;13.38;;;10.35;;
20669;SDS011;10494;50.868;4.180;2023-04-21T10:16:04;12.30;;;9.55;;
20669;SDS011;10494;50.868;4.180;2023-04-21T10:18:34;12.00;;;9.48;;
20669;SDS011;10494;50.868;4.180;2023-04-21T10:23:44;11.55;;;8.05;;
20669;SDS011;10494;50.868;4.180;2023-04-21T10:26:16;9.95;;;8.15;;
20669;SDS011;10494;50.868;4.180;2023-04-21T10:28:57;21.20;;;8.98;;
20669;SDS011;10494;50.868;4.180;2023-04-21T10:34:16;9.95;;;7.78;;
20669;SDS011;10494;50.868;4.180;2023-04-21T10:39:30;11.13;;;8.23;;
20669;SDS011;10494;50.868;4.180;2023-04-21T10:44:41;10.57;;;8.02;;
20669;SDS011;10494;50.868;4.180;2023-04-21T10:47:07;10.35;;;9.10;;
20669;SDS011;10494;50.868;4.180;2023-04-21T10:49:36;12.48;;;9.07;;
20669;SDS011;10494;50.868;4.180;2023-04-21T10:52:04;13.27;;;9.52;;
20669;SDS011;10494;50.868;4.180;2023-04-21T10:54:37;13.15;;;8.55;;
20669;SDS011;10494;50.868;4.180;2023-04-21T10:57:10;14.18;;;9.48;;
20669;SDS011;10494;50.868;4.180;2023-04-21T10:59:37;10.98;;;7.82;;
20669;SDS011;10494;50.868;4.180;2023-04-21T11:02:07;13.30;;;8.00;;
20669;SDS011;10494;50.868;4.180;2023-04-21T11:04:35;11.65;;;8.48;;
20669;SDS011;10494;50.868;4.180;2023-04-21T11:12:14;9.20;;;7.45;;
20669;SDS011;10494;50.868;4.180;2023-04-21T11:14:42;11.43;;;8.68;;
20669;SDS011;10494;50.868;4.180;2023-04-21T11:17:14;11.35;;;8.20;;
20669;SDS011;10494;50.868;4.180;2023-04-21T11:19:41;11.35;;;9.18;;
20669;SDS011;10494;50.868;4.180;2023-04-21T11:22:10;11.93;;;9.38;;
20669;SDS011;10494;50.868;4.180;2023-04-21T11:24:35;12.98;;;9.48;;
20669;SDS011;10494;50.868;4.180;2023-04-21T11:27:01;21.48;;;10.00;;
20669;SDS011;10494;50.868;4.180;2023-04-21T11:29:27;11.05;;;8.27;;
20669;SDS011;10494;50.868;4.180;2023-04-21T11:31:53;12.38;;;9.07;;
20669;SDS011;10494;50.868;4.180;2023-04-21T11:34:20;13.23;;;8.30;;
20669;SDS011;10494;50.868;4.180;2023-04-21T11:36:46;14.23;;;8.43;;
20669;SDS011;10494;50.868;4.180;2023-04-21T11:39:13;12.27;;;8.85;;
20669;SDS011;10494;50.868;4.180;2023-04-21T11:41:44;14.23;;;8.75;;
20669;SDS011;10494;50.868;4.180;2023-04-21T11:44:11;14.68;;;7.75;;
20669;SDS011;10494;50.868;4.180;2023-04-21T11:46:45;12.02;;;8.35;;
20669;SDS011;10494;50.868;4.180;2023-04-21T11:49:11;11.02;;;8.45;;
20669;SDS011;10494;50.868;4.180;2023-04-21T11:51:39;11.98;;;7.95;;
20669;SDS011;10494;50.868;4.180;2023-04-21T11:54:07;14.35;;;8.20;;
20669;SDS011;10494;50.868;4.180;2023-04-21T11:56:36;12.20;;;7.70;;
20669;SDS011;10494;50.868;4.180;2023-04-21T11:59:11;12.57;;;8.90;;
20669;SDS011;10494;50.868;4.180;2023-04-21T12:01:48;13.50;;;7.53;;
20669;SDS011;10494;50.868;4.180;2023-04-21T12:04:16;12.55;;;8.00;;
20669;SDS011;10494;50.868;4.180;2023-04-21T12:06:48;11.38;;;7.18;;
20669;SDS011;10494;50.868;4.180;2023-04-21T12:09:23;9.07;;;6.88;;
20669;SDS011;10494;50.868;4.180;2023-04-21T12:11:50;10.18;;;6.57;;
20669;SDS011;10494;50.868;4.180;2023-04-21T12:14:22;10.93;;;6.85;;
20669;SDS011;10494;50.868;4.180;2023-04-21T12:16:51;9.02;;;6.35;;
20669;SDS011;10494;50.868;4.180;2023-04-21T12:19:33;12.57;;;7.80;;
20669;SDS011;10494;50.868;4.180;2023-04-21T12:22:09;12.75;;;8.32;;
20669;SDS011;10494;50.868;4.180;2023-04-21T12:24:36;12.25;;;8.30;;
20669;SDS011;10494;50.868;4.180;2023-04-21T12:27:03;11.75;;;7.78;;
20669;SDS011;10494;50.868;4.180;2023-04-21T12:29:30;11.27;;;7.60;;
20669;SDS011;10494;50.868;4.180;2023-04-21T12:31:56;9.43;;;7.30;;
20669;SDS011;10494;50.868;4.180;2023-04-21T12:34:21;12.68;;;8.75;;
20669;SDS011;10494;50.868;4.180;2023-04-21T12:36:47;10.73;;;7.93;;
20669;SDS011;10494;50.868;4.180;2023-04-21T12:39:13;10.82;;;7.47;;
20669;SDS011;10494;50.868;4.180;2023-04-21T12:41:41;9.50;;;7.10;;
20669;SDS011;10494;50.868;4.180;2023-04-21T12:44:07;14.88;;;8.73;;
20669;SDS011;10494;50.868;4.180;2023-04-21T12:46:32;9.70;;;6.75;;
20669;SDS011;10494;50.868;4.180;2023-04-21T12:48:58;10.00;;;7.10;;
20669;SDS011;10494;50.868;4.180;2023-04-21T12:51:24;12.15;;;7.03;;
20669;SDS011;10494;50.868;4.180;2023-04-21T12:53:50;10.32;;;6.65;;
20669;SDS011;10494;50.868;4.180;2023-04-21T12:56:16;9.10;;;6.40;;
20669;SDS011;10494;50.868;4.180;2023-04-21T12:58:42;11.25;;;6.05;;
20669;SDS011;10494;50.868;4.180;2023-04-21T13:01:08;8.77;;;6.43;;
20669;SDS011;10494;50.868;4.180;2023-04-21T13:03:33;9.00;;;5.15;;
20669;SDS011;10494;50.868;4.180;2023-04-21T13:05:59;7.78;;;5.63;;
20669;SDS011;10494;50.868;4.180;2023-04-21T13:08:24;8.82;;;6.80;;
20669;SDS011;10494;50.868;4.180;2023-04-21T13:10:50;8.02;;;6.07;;
20669;SDS011;10494;50.868;4.180;2023-04-21T13:13:16;7.78;;;5.97;;
20669;SDS011;10494;50.868;4.180;2023-04-21T13:15:41;9.23;;;5.18;;
20669;SDS011;10494;50.868;4.180;2023-04-21T13:18:07;7.22;;;5.05;;
20669;SDS011;10494;50.868;4.180;2023-04-21T13:20:33;6.82;;;4.88;;
20669;SDS011;10494;50.868;4.180;2023-04-21T13:22:58;8.82;;;5.82;;
20669;SDS011;10494;50.868;4.180;2023-04-21T13:25:24;8.45;;;6.28;;
20669;SDS011;10494;50.868;4.180;2023-04-21T13:27:50;8.93;;;6.15;;
20669;SDS011;10494;50.868;4.180;2023-04-21T13:30:16;8.32;;;5.80;;
20669;SDS011;10494;50.868;4.180;2023-04-21T13:32:42;9.75;;;6.97;;
20669;SDS011;10494;50.868;4.180;2023-04-21T13:35:08;9.05;;;6.32;;
20669;SDS011;10494;50.868;4.180;2023-04-21T13:37:38;10.43;;;5.78;;
20669;SDS011;10494;50.868;4.180;2023-04-21T13:40:05;8.98;;;5.40;;
20669;SDS011;10494;50.868;4.180;2023-04-21T13:42:32;16.45;;;6.25;;
20669;SDS011;10494;50.868;4.180;2023-04-21T13:44:58;10.43;;;5.15;;
20669;SDS011;10494;50.868;4.180;2023-04-21T13:47:26;9.93;;;5.63;;
20669;SDS011;10494;50.868;4.180;2023-04-21T13:49:52;11.93;;;5.97;;
20669;SDS011;10494;50.868;4.180;2023-04-21T13:52:17;12.52;;;9.15;;
20669;SDS011;10494;50.868;4.180;2023-04-21T13:54:43;10.35;;;8.30;;
20669;SDS011;10494;50.868;4.180;2023-04-21T13:57:09;10.75;;;7.78;;
20669;SDS011;10494;50.868;4.180;2023-04-21T13:59:34;10.25;;;8.23;;
20669;SDS011;10494;50.868;4.180;2023-04-21T14:02:00;10.70;;;8.00;;
20669;SDS011;10494;50.868;4.180;2023-04-21T14:04:26;11.38;;;8.30;;
20669;SDS011;10494;50.868;4.180;2023-04-21T14:06:52;11.38;;;6.53;;
20669;SDS011;10494;50.868;4.180;2023-04-21T14:09:17;9.77;;;7.13;;
20669;SDS011;10494;50.868;4.180;2023-04-21T14:11:43;14.15;;;7.38;;
20669;SDS011;10494;50.868;4.180;2023-04-21T14:14:08;14.10;;;7.60;;
20669;SDS011;10494;50.868;4.180;2023-04-21T14:16:34;10.55;;;7.22;;
20669;SDS011;10494;50.868;4.180;2023-04-21T14:19:00;14.95;;;7.03;;
20669;SDS011;10494;50.868;4.180;2023-04-21T14:21:25;10.10;;;7.07;;
20669;SDS011;10494;50.868;4.180;2023-04-21T14:23:51;7.90;;;5.53;;
20669;SDS011;10494;50.868;4.180;2023-04-21T14:26:16;18.60;;;6.20;;
20669;SDS011;10494;50.868;4.180;2023-04-21T14:28:42;22.73;;;7.15;;
20669;SDS011;10494;50.868;4.180;2023-04-21T14:31:08;9.07;;;5.35;;
20669;SDS011;10494;50.868;4.180;2023-04-21T14:33:34;8.32;;;5.13;;
20669;SDS011;10494;50.868;4.180;2023-04-21T14:36:00;7.40;;;5.28;;
20669;SDS011;10494;50.868;4.180;2023-04-21T14:38:25;8.00;;;5.68;;
20669;SDS011;10494;50.868;4.180;2023-04-21T14:40:53;8.35;;;5.07;;